Time;durP1;ratioP1;P1;durP2;ratioP2;P2;SDS_P1;SDS_P2;PMS_P1;PMS_P2;Temp;Humidity;BMP_temperature;BMP_pressure;BME280_temperature;BME280_humidity;BME280_pressure;Samples;Min_cycle;Max_cycle;Signal;HPM_P1;HPM_P2
2022/03/21 00:00:46;;;;;;;19.93;12.13;;;;;;;2.28;50.04;101354.56;5072208;28;20204;-76
2022/03/21 00:03:16;;;;;;;20.83;12.53;;;;;;;2.38;49.26;101357.50;5072146;28;20585;-75
2022/03/21 00:05:45;;;;;;;25.33;13.10;;;;;;;2.44;49.65;101352.59;5071853;28;20695;-75
2022/03/21 00:08:12;;;;;;;19.37;11.70;;;;;;;2.36;48.64;101324.97;5071825;28;20715;-75
2022/03/21 00:10:40;;;;;;;16.37;10.63;;;;;;;2.55;48.61;101353.81;5072028;28;20561;-75
2022/03/21 00:13:08;;;;;;;21.33;11.60;;;;;;;2.54;48.32;101348.66;5072056;28;20246;-75
2022/03/21 00:15:35;;;;;;;19.13;10.30;;;;;;;2.29;47.91;101287.16;5071985;28;20198;-75
2022/03/21 00:18:05;;;;;;;18.03;10.17;;;;;;;2.59;48.19;101341.13;5071704;28;20196;-75
2022/03/21 00:20:33;;;;;;;15.53;10.23;;;;;;;2.66;47.84;101331.09;5072055;28;20657;-75
2022/03/21 00:23:01;;;;;;;18.73;10.53;;;;;;;2.69;47.40;101333.78;5071543;28;20200;-75
2022/03/21 00:25:29;;;;;;;18.43;9.80;;;;;;;2.71;47.03;101337.22;5071893;28;20660;-76
2022/03/21 00:27:56;;;;;;;18.43;9.97;;;;;;;2.75;46.89;101328.81;5071294;28;20237;-75
2022/03/21 00:30:23;;;;;;;14.60;10.00;;;;;;;2.77;46.82;101332.31;5071462;28;20207;-74
2022/03/21 00:32:50;;;;;;;17.27;9.63;;;;;;;2.80;46.72;101342.66;5071247;28;20203;-76
2022/03/21 00:35:19;;;;;;;14.70;9.80;;;;;;;2.73;46.70;101316.75;5071571;28;20579;-75
2022/03/21 00:37:46;;;;;;;14.43;10.53;;;;;;;2.83;46.64;101335.06;5071150;28;20193;-75
2022/03/21 00:40:16;;;;;;;16.03;10.40;;;;;;;2.71;47.66;101332.09;5071360;28;20203;-75
2022/03/21 00:42:45;;;;;;;14.53;9.07;;;;;;;2.74;47.63;101332.19;5071235;28;20325;-75
2022/03/21 00:45:14;;;;;;;13.20;8.93;;;;;;;2.84;47.26;101329.09;5070696;28;20614;-75
2022/03/21 00:47:42;;;;;;;12.83;9.33;;;;;;;2.89;46.76;101321.56;5071240;28;20243;-75
2022/03/21 00:50:12;;;;;;;12.50;9.07;;;;;;;2.95;47.15;101326.00;5071107;28;20192;-75
2022/03/21 00:52:45;;;;;;;14.03;9.50;;;;;;;2.99;46.16;101312.47;5071288;28;20288;-75
2022/03/21 00:55:13;;;;;;;16.03;9.20;;;;;;;3.00;46.38;101314.19;5070873;28;20242;-75
2022/03/21 00:57:42;;;;;;;14.57;9.30;;;;;;;2.92;46.58;101314.84;5070975;28;20691;-75
2022/03/21 01:00:12;;;;;;;17.23;9.73;;;;;;;3.01;46.72;101316.81;5071153;28;20205;-75
2022/03/21 01:02:39;;;;;;;16.77;9.80;;;;;;;3.02;46.46;101305.72;5071187;28;20285;-74
2022/03/21 01:05:08;;;;;;;17.00;10.00;;;;;;;3.09;46.81;101304.22;5070921;28;20201;-76
2022/03/21 01:07:35;;;;;;;14.30;9.40;;;;;;;3.12;46.41;101312.88;5070642;28;20618;-74
2022/03/21 01:10:05;;;;;;;17.87;10.67;;;;;;;3.16;45.51;101311.28;5070751;28;20202;-74
2022/03/21 01:12:33;;;;;;;16.40;10.03;;;;;;;3.08;46.12;101302.47;5070647;28;20196;-75
2022/03/21 01:15:00;;;;;;;17.03;10.67;;;;;;;3.10;46.04;101311.09;5071061;28;20559;-74
2022/03/21 01:17:27;;;;;;;13.50;10.27;;;;;;;3.05;46.26;101298.09;5070381;28;20203;-75
2022/03/21 01:19:54;;;;;;;20.47;10.47;;;;;;;3.02;46.98;101307.44;5070587;28;20603;-76
2022/03/21 01:22:21;;;;;;;17.07;10.80;;;;;;;2.95;47.20;101311.47;5070816;28;20208;-74
2022/03/21 01:24:48;;;;;;;18.30;10.17;;;;;;;3.01;46.54;101303.13;5070290;28;20219;-75
2022/03/21 01:27:16;;;;;;;16.53;9.87;;;;;;;2.98;46.79;101288.50;5070214;28;20206;-76
2022/03/21 01:29:43;;;;;;;18.77;10.40;;;;;;;2.97;47.00;101303.84;5070238;28;20202;-75
2022/03/21 01:32:10;;;;;;;16.37;10.77;;;;;;;2.88;46.94;101301.88;5070581;28;20649;-75
2022/03/21 01:34:37;;;;;;;18.53;10.30;;;;;;;2.81;47.83;101288.00;5070255;28;20199;-75
2022/03/21 01:37:04;;;;;;;15.33;9.97;;;;;;;2.84;47.92;101277.81;5070201;28;20196;-75
2022/03/21 01:39:31;;;;;;;17.23;10.60;;;;;;;2.81;47.49;101282.88;5070534;28;20189;-75
2022/03/21 01:41:58;;;;;;;17.10;9.77;;;;;;;2.85;47.08;101294.06;5070093;28;20195;-74
2022/03/21 01:44:26;;;;;;;17.20;10.20;;;;;;;2.73;47.53;101281.75;5070384;28;20201;-74
2022/03/21 01:46:53;;;;;;;18.53;10.10;;;;;;;2.80;47.59;101276.00;5069979;28;20236;-75
2022/03/21 01:49:20;;;;;;;18.83;9.57;;;;;;;2.83;47.17;101282.88;5069856;28;20224;-75
2022/03/21 01:51:47;;;;;;;16.43;9.73;;;;;;;2.75;46.81;101277.53;5069859;28;20583;-75
2022/03/21 01:56:59;;;;;;;17.27;9.30;;;;;;;2.62;46.64;101277.09;5069219;28;20196;-75
2022/03/21 01:59:30;;;;;;;13.60;9.03;;;;;;;2.60;47.06;101271.09;5070096;28;20196;-75
2022/03/21 02:01:57;;;;;;;12.53;9.50;;;;;;;2.55;47.88;101284.63;5069863;28;20196;-76
2022/03/21 02:04:23;;;;;;;13.03;8.70;;;;;;;2.63;48.12;101279.72;5069944;28;20192;-75
2022/03/21 02:06:51;;;;;;;14.63;9.77;;;;;;;2.66;48.06;101276.38;5069488;28;20196;-76
2022/03/21 02:09:18;;;;;;;14.50;8.83;;;;;;;2.71;48.03;101275.69;5069707;28;20226;-75
2022/03/21 02:11:45;;;;;;;16.10;9.67;;;;;;;2.75;48.11;101277.53;5069885;28;20201;-75
2022/03/21 02:14:12;;;;;;;16.93;9.47;;;;;;;2.65;47.79;101260.13;5070195;28;20200;-75
2022/03/21 02:16:41;;;;;;;14.37;9.07;;;;;;;2.87;47.67;101283.03;5069679;28;20192;-75
2022/03/21 02:19:14;;;;;;;13.00;9.20;;;;;;;2.74;47.83;101288.63;5069729;28;20290;-75
2022/03/21 02:21:53;;;;;;;16.77;9.23;;;;;;;2.64;47.56;101263.50;5070143;28;20686;-76
2022/03/21 02:24:29;;;;;;;16.43;9.47;;;;;;;2.76;47.88;101274.16;5069695;28;20262;-75
2022/03/21 02:27:01;;;;;;;13.97;9.27;;;;;;;2.80;47.98;101283.69;5069632;28;20196;-75
2022/03/21 02:29:30;;;;;;;17.67;9.83;;;;;;;2.71;47.39;101285.94;5069652;28;20222;-76
2022/03/21 02:31:57;;;;;;;15.70;9.17;;;;;;;2.88;47.73;101287.34;5069456;28;20535;-75
2022/03/21 02:34:26;;;;;;;10.17;8.60;;;;;;;2.57;46.81;101229.97;5069704;28;20416;-74
2022/03/21 02:36:58;;;;;;;14.17;9.90;;;;;;;2.95;47.13;101295.22;5069500;28;20196;-75
2022/03/21 02:39:28;;;;;;;13.00;9.40;;;;;;;2.87;46.62;101292.44;5069649;28;20292;-75
2022/03/21 02:41:55;;;;;;;15.60;9.57;;;;;;;2.84;46.42;101272.69;5069449;28;20233;-75
2022/03/21 02:44:23;;;;;;;15.07;9.40;;;;;;;2.95;46.16;101290.09;5069403;28;20195;-75
2022/03/21 02:46:50;;;;;;;13.50;9.50;;;;;;;3.07;46.17;101300.72;5069525;28;20213;-74
2022/03/21 02:49:17;;;;;;;12.27;9.37;;;;;;;3.01;46.19;101295.44;5069547;28;20263;-75
2022/03/21 02:51:44;;;;;;;15.07;9.00;;;;;;;3.00;46.85;101299.69;5069541;28;20198;-75
2022/03/21 02:54:13;;;;;;;11.83;9.17;;;;;;;3.05;46.57;101292.13;5069426;28;20231;-75
2022/03/21 02:56:40;;;;;;;16.73;9.97;;;;;;;2.92;46.65;101280.63;5069104;28;20313;-75
2022/03/21 02:59:07;;;;;;;13.67;9.57;;;;;;;2.91;46.94;101291.72;5069815;28;20236;-75
2022/03/21 03:01:36;;;;;;;14.47;9.80;;;;;;;2.93;46.39;101298.59;5069322;28;20199;-74
2022/03/21 03:04:03;;;;;;;16.23;10.13;;;;;;;2.93;46.51;101296.03;5069434;28;20756;-74
2022/03/21 03:06:30;;;;;;;13.50;9.80;;;;;;;2.96;46.62;101286.69;5069533;28;20194;-74
2022/03/21 03:08:57;;;;;;;16.30;10.07;;;;;;;2.94;46.15;101294.34;5070830;28;20674;-75
2022/03/21 03:11:24;;;;;;;14.37;9.93;;;;;;;2.90;46.78;101290.84;5072808;28;20224;-75
2022/03/21 03:13:51;;;;;;;17.70;10.50;;;;;;;2.97;46.87;101288.44;5072802;28;20845;-75
2022/03/21 03:16:18;;;;;;;16.27;9.77;;;;;;;2.81;47.02;101282.88;5073289;28;20689;-74
2022/03/21 03:18:47;;;;;;;17.93;10.47;;;;;;;2.85;47.11;101292.38;5072786;28;20215;-74
2022/03/21 03:21:19;;;;;;;16.50;10.00;;;;;;;2.92;47.70;101288.31;5072882;28;20192;-75
2022/03/21 03:23:50;;;;;;;16.23;10.53;;;;;;;2.80;47.41;101286.25;5072656;28;20262;-75
2022/03/21 03:26:16;;;;;;;12.90;9.33;;;;;;;2.77;47.87;101275.03;5072811;28;20254;-74
2022/03/21 03:28:43;;;;;;;17.30;10.50;;;;;;;2.86;47.14;101281.31;5072553;28;20602;-72
2022/03/21 03:31:11;;;;;;;19.07;10.97;;;;;;;2.75;48.49;101285.22;5072587;28;20675;-76
2022/03/21 03:33:38;;;;;;;18.40;10.37;;;;;;;2.57;47.93;101265.84;5069292;28;21942;-77
2022/03/21 03:36:07;;;;;;;16.50;9.77;;;;;;;2.50;48.12;101272.47;5065766;28;20213;-76
2022/03/21 03:38:34;;;;;;;16.20;10.60;;;;;;;2.51;48.16;101281.88;5058803;28;20223;-76
2022/03/21 03:41:01;;;;;;;22.77;10.97;;;;;;;2.48;48.41;101276.69;5056424;28;20222;-76
2022/03/21 03:43:29;;;;;;;17.03;11.63;;;;;;;2.45;49.11;101274.03;5069303;28;20665;-76
2022/03/21 03:45:57;;;;;;;18.90;11.03;;;;;;;2.41;50.10;101279.84;5059080;28;20221;-76
2022/03/21 03:48:25;;;;;;;18.10;11.37;;;;;;;2.36;50.02;101271.16;5051654;28;20355;-77
2022/03/21 03:50:52;;;;;;;17.87;11.43;;;;;;;2.13;50.18;101252.47;5051930;28;20594;-74
2022/03/21 03:53:20;;;;;;;24.23;10.97;;;;;;;2.30;51.62;101265.81;5052114;28;20260;-76
2022/03/21 03:55:48;;;;;;;21.67;12.50;;;;;;;2.23;50.69;101272.47;5056069;28;20229;-76
2022/03/21 03:58:15;;;;;;;20.57;11.90;;;;;;;2.23;49.90;101280.16;5062293;28;20700;-77
2022/03/21 04:00:42;;;;;;;26.73;12.97;;;;;;;2.17;50.54;101270.56;5059589;28;20219;-77
2022/03/21 04:05:53;;;;;;;27.00;14.00;;;;;;;2.22;49.69;101268.16;5051387;28;20799;-74
2022/03/21 04:08:21;;;;;;;24.20;13.77;;;;;;;2.14;50.58;101260.19;5051146;28;20217;-76
2022/03/21 04:10:48;;;;;;;21.17;12.73;;;;;;;2.34;49.57;101273.69;5064793;28;20264;-77
2022/03/21 04:13:15;;;;;;;18.03;11.50;;;;;;;2.35;49.77;101264.31;5068735;28;20228;-76
2022/03/21 04:15:42;;;;;;;22.43;12.30;;;;;;;2.34;48.30;101265.13;5062953;28;20626;-77
2022/03/21 04:18:09;;;;;;;26.60;12.30;;;;;;;2.20;49.09;101239.03;5059549;28;20220;-76
2022/03/21 04:20:37;;;;;;;19.27;12.30;;;;;;;2.13;49.23;101232.88;5065662;28;20218;-77
2022/03/21 04:23:05;;;;;;;22.33;12.50;;;;;;;2.05;49.25;101241.97;5065975;28;20878;-78
2022/03/21 04:25:33;;;;;;;21.10;12.50;;;;;;;2.07;50.54;101258.25;5067863;28;20727;-78
2022/03/21 04:28:01;;;;;;;19.33;11.83;;;;;;;2.05;49.70;101248.78;5068145;28;20226;-76
2022/03/21 04:30:28;;;;;;;24.10;12.97;;;;;;;2.20;49.45;101254.41;5068324;28;20228;-78
2022/03/21 04:32:55;;;;;;;26.27;12.17;;;;;;;2.19;49.91;101253.53;5068092;28;20226;-80
2022/03/21 04:35:22;;;;;;;20.17;12.37;;;;;;;2.07;50.24;101247.16;5068508;28;20281;-79
2022/03/21 04:38:00;;;;;;;22.33;12.10;;;;;;;1.97;49.82;101224.63;5065829;28;20224;-77
2022/03/21 04:40:31;;;;;;;21.00;11.83;;;;;;;2.23;53.66;101246.84;5066827;28;20208;-77
2022/03/21 04:43:06;;;;;;;21.87;12.03;;;;;;;2.16;49.14;101250.88;5068310;28;20216;-78
2022/03/21 04:45:33;;;;;;;16.90;10.50;;;;;;;2.16;50.67;101250.88;5065706;28;21027;-76
2022/03/21 04:48:00;;;;;;;18.73;11.27;;;;;;;2.27;49.36;101255.47;5068280;28;20219;-79
2022/03/21 04:50:30;;;;;;;20.57;12.03;;;;;;;2.40;48.56;101257.63;5070133;28;20604;-78
2022/03/21 04:52:57;;;;;;;15.40;11.23;;;;;;;2.47;48.65;101257.00;5070466;28;20251;-78
2022/03/21 04:55:24;;;;;;;17.87;11.30;;;;;;;2.62;47.92;101265.16;5070054;28;20305;-76
2022/03/21 04:57:51;;;;;;;20.80;11.73;;;;;;;2.71;48.02;101262.88;5071319;28;20278;-76
2022/03/21 05:00:20;;;;;;;20.60;11.43;;;;;;;2.79;48.10;101266.56;5072554;28;20225;-74
2022/03/21 05:02:47;;;;;;;18.53;11.93;;;;;;;2.56;47.50;101216.28;5060908;28;20700;-76
2022/03/21 05:05:15;;;;;;;19.33;11.17;;;;;;;3.02;47.58;101251.00;5060680;28;20230;-76
2022/03/21 05:07:42;;;;;;;16.87;11.80;;;;;;;3.16;47.29;101270.22;5057218;28;20291;-75
2022/03/21 05:10:10;;;;;;;18.70;11.87;;;;;;;3.24;46.75;101259.34;5064677;28;20307;-77
2022/03/21 05:12:37;;;;;;;19.67;11.97;;;;;;;3.10;46.72;101241.81;5058210;28;20230;-77
2022/03/21 05:15:06;;;;;;;17.77;12.37;;;;;;;3.08;47.63;101271.69;5060844;28;20324;-77
2022/03/21 05:17:35;;;;;;;17.80;12.20;;;;;;;3.07;47.30;101247.72;5057958;28;20800;-75
2022/03/21 05:20:02;;;;;;;21.53;13.30;;;;;;;3.38;47.28;101277.72;5057355;28;20212;-76
2022/03/21 05:22:29;;;;;;;20.70;13.00;;;;;;;3.55;47.22;101263.63;5058879;28;20655;-76
2022/03/21 05:35:58;;;;;;;19.00;12.83;;;;;;;7.82;38.29;101301.09;5049849;28;20223;-78
2022/03/21 05:38:26;;;;;;;21.43;13.53;;;;;;;8.51;37.32;101294.91;5049253;28;20221;-75
2022/03/21 05:40:56;;;;;;;22.10;12.30;;;;;;;9.31;36.13;101298.00;5049878;28;20234;-77
2022/03/21 05:43:24;;;;;;;21.10;12.70;;;;;;;10.28;34.30;101310.41;5055407;28;20735;-78
2022/03/21 05:45:52;;;;;;;21.47;13.03;;;;;;;11.42;32.71;101299.88;5067461;28;20680;-76
2022/03/21 05:51:05;;;;;;;16.37;13.07;;;;;;;13.24;29.22;101287.25;5069814;28;20726;-78
2022/03/21 05:53:32;;;;;;;17.00;13.03;;;;;;;13.89;28.54;101288.16;5068600;28;20756;-77
2022/03/21 05:56:01;;;;;;;23.20;13.77;;;;;;;14.27;28.23;101274.53;5069624;28;20626;-77
2022/03/21 05:58:28;;;;;;;17.13;13.33;;;;;;;14.76;27.52;101315.59;5069040;28;20224;-78
2022/03/21 06:00:55;;;;;;;19.97;13.93;;;;;;;14.79;27.18;101290.22;5069104;28;20211;-79
2022/03/21 06:03:24;;;;;;;22.17;14.20;;;;;;;14.69;26.99;101287.81;5069597;28;20223;-78
2022/03/21 06:05:53;;;;;;;19.70;14.00;;;;;;;14.81;27.07;101316.34;5069604;28;20212;-79
2022/03/21 06:08:21;;;;;;;20.93;14.20;;;;;;;15.93;25.98;101316.75;5069546;28;20223;-78
2022/03/21 06:10:48;;;;;;;25.97;14.90;;;;;;;15.41;26.07;101303.03;5069015;28;20239;-77
2022/03/21 06:13:15;;;;;;;18.50;14.40;;;;;;;15.60;25.79;101315.72;5069268;28;20227;-77
2022/03/21 06:15:45;;;;;;;24.97;14.83;;;;;;;16.20;24.77;101307.41;5068582;28;20298;-76
2022/03/21 06:18:13;;;;;;;18.53;15.07;;;;;;;16.73;24.41;101312.28;5069517;28;20224;-79
2022/03/21 06:20:42;;;;;;;20.37;15.20;;;;;;;17.45;23.56;101321.69;5068773;28;20234;-78
2022/03/21 06:23:09;;;;;;;22.57;14.23;;;;;;;17.82;23.52;101332.91;5069078;28;20315;-77
2022/03/21 06:25:38;;;;;;;25.75;14.82;;;;;;;18.19;23.15;101337.88;5069106;28;20224;-78
2022/03/21 06:28:05;;;;;;;23.70;16.38;;;;;;;18.19;22.83;101331.75;5069501;28;20276;-78
2022/03/21 06:30:33;;;;;;;27.35;16.73;;;;;;;18.21;22.56;101327.31;5068409;28;20234;-77
2022/03/21 06:33:00;;;;;;;21.42;15.05;;;;;;;18.89;22.00;101313.69;5069120;28;20605;-78
2022/03/21 06:35:27;;;;;;;25.83;15.57;;;;;;;19.50;21.75;101323.81;5069275;28;20586;-77
2022/03/21 06:37:55;;;;;;;22.90;17.00;;;;;;;20.03;20.99;101318.25;5069243;28;20216;-77
2022/03/21 06:40:23;;;;;;;17.65;14.77;;;;;;;20.35;20.40;101324.91;5068995;28;20215;-77
2022/03/21 06:42:51;;;;;;;20.30;15.43;;;;;;;20.80;20.43;101322.16;5069098;28;20282;-78
2022/03/21 06:45:18;;;;;;;16.88;15.07;;;;;;;21.28;19.67;101307.78;5072503;28;20734;-78
2022/03/21 06:47:45;;;;;;;16.23;14.50;;;;;;;21.05;19.86;101321.97;5072802;28;20226;-78
2022/03/21 06:50:12;;;;;;;17.13;15.32;;;;;;;20.52;20.29;101289.94;5072905;28;20623;-77
2022/03/21 06:52:39;;;;;;;20.27;15.63;;;;;;;21.19;19.88;101313.50;5072854;28;20643;-77
2022/03/21 06:55:10;;;;;;;19.42;15.18;;;;;;;21.39;19.40;101324.03;5072493;28;20228;-78
2022/03/21 06:57:37;;;;;;;16.23;14.52;;;;;;;22.42;19.06;101313.00;5072749;28;20747;-78
2022/03/21 07:00:05;;;;;;;19.77;14.30;;;;;;;22.32;18.48;101304.66;5072139;28;20303;-78
2022/03/21 07:02:32;;;;;;;15.70;14.07;;;;;;;21.75;18.75;101308.28;5072561;28;20718;-78
2022/03/21 07:04:59;;;;;;;16.25;14.55;;;;;;;21.60;18.86;101306.31;5072661;28;20610;-78
2022/03/21 07:07:26;;;;;;;23.75;14.73;;;;;;;21.81;18.85;101307.97;5073162;28;20224;-78
2022/03/21 07:09:53;;;;;;;18.77;14.48;;;;;;;22.83;18.27;101316.25;5072616;28;20715;-78
2022/03/21 07:12:23;;;;;;;21.20;14.93;;;;;;;23.47;17.89;101312.88;5072481;28;20311;-79
2022/03/21 07:14:50;;;;;;;14.80;13.23;;;;;;;23.68;17.28;101282.59;5071864;28;20321;-80
2022/03/21 07:17:20;;;;;;;15.05;13.48;;;;;;;24.11;16.99;101294.28;5072572;28;20723;-78
2022/03/21 07:19:47;;;;;;;18.23;16.25;;;;;;;24.65;16.79;101267.31;5072451;28;20659;-77
2022/03/21 07:22:14;;;;;;;18.33;15.30;;;;;;;25.89;16.04;101299.47;5072309;28;20650;-78
2022/03/21 07:24:41;;;;;;;17.55;14.02;;;;;;;26.39;16.00;101306.00;5072049;28;20212;-77
2022/03/21 07:27:08;;;;;;;18.90;13.05;;;;;;;26.22;15.47;101301.72;5072169;28;20234;-76
2022/03/21 07:29:37;;;;;;;21.60;13.38;;;;;;;26.81;14.94;101301.38;5071452;28;20608;-77
2022/03/21 07:32:05;;;;;;;16.33;13.23;;;;;;;27.29;15.07;101286.50;5072166;28;20219;-76
2022/03/21 07:34:32;;;;;;;15.00;13.00;;;;;;;28.13;14.33;101295.47;5071920;28;20219;-77
2022/03/21 07:36:59;;;;;;;17.70;13.05;;;;;;;28.53;13.73;101298.75;5072091;28;20220;-75
2022/03/21 07:39:26;;;;;;;14.98;12.57;;;;;;;28.32;13.77;101278.13;5072159;28;20226;-77
2022/03/21 07:41:59;;;;;;;17.25;12.82;;;;;;;27.87;13.52;101296.56;5071898;28;20277;-79
2022/03/21 07:47:20;;;;;;;34.75;24.48;;;;;;;27.24;13.71;101304.63;5072009;28;20226;-76
2022/03/21 07:49:48;;;;;;;25.70;21.67;;;;;;;26.84;13.75;101296.72;5071890;28;20239;-76
2022/03/21 07:52:18;;;;;;;29.52;21.20;;;;;;;25.50;14.55;101294.84;5071552;28;20230;-77
2022/03/21 07:54:46;;;;;;;17.05;15.25;;;;;;;25.75;14.32;101288.84;5070501;28;20250;-79
2022/03/21 07:57:13;;;;;;;15.57;12.82;;;;;;;25.33;14.02;101293.22;5071941;28;20582;-79
2022/03/21 07:59:40;;;;;;;15.57;14.15;;;;;;;25.31;14.74;101292.47;5071341;28;20220;-78
2022/03/21 08:02:08;;;;;;;15.70;12.77;;;;;;;22.97;15.59;101259.91;5071656;28;20606;-78
2022/03/21 08:04:36;;;;;;;19.40;13.50;;;;;;;23.93;15.65;101274.09;5071417;28;20215;-77
2022/03/21 08:07:03;;;;;;;16.42;13.18;;;;;;;21.85;16.54;101266.41;5071784;28;20306;-77
2022/03/21 08:09:30;;;;;;;17.15;13.75;;;;;;;19.87;17.79;101280.22;5071476;28;20235;-78
2022/03/21 08:12:00;;;;;;;16.73;14.18;;;;;;;18.50;18.87;101279.94;5071473;28;20220;-78
2022/03/21 08:14:27;;;;;;;14.65;12.60;;;;;;;15.92;20.61;101267.88;5070834;28;20222;-78
2022/03/21 08:16:54;;;;;;;15.07;12.77;;;;;;;14.15;22.41;101259.06;5071265;28;20598;-79
2022/03/21 08:19:24;;;;;;;21.10;14.00;;;;;;;13.56;23.57;101258.16;5071282;28;20673;-78
2022/03/21 08:21:54;;;;;;;19.30;12.73;;;;;;;13.41;24.11;101266.22;5070694;28;20222;-78
2022/03/21 08:24:21;;;;;;;16.53;12.30;;;;;;;13.36;24.08;101260.19;5071444;28;20223;-78
2022/03/21 08:26:48;;;;;;;14.17;10.90;;;;;;;12.87;24.24;101238.97;5071138;28;20219;-78
2022/03/21 08:29:15;;;;;;;16.93;10.70;;;;;;;12.14;24.53;101250.09;5070851;28;20215;-78
2022/03/21 08:31:42;;;;;;;14.90;10.43;;;;;;;11.63;25.72;101244.28;5070694;28;20234;-76
2022/03/21 08:34:09;;;;;;;14.53;11.90;;;;;;;11.52;26.04;101259.97;5070889;28;20215;-77
2022/03/21 08:36:36;;;;;;;21.57;12.07;;;;;;;11.61;26.23;101243.47;5070563;28;20711;-77
2022/03/21 08:39:06;;;;;;;14.63;11.43;;;;;;;11.67;26.26;101255.56;5071411;28;20567;-77
2022/03/21 08:41:33;;;;;;;15.87;11.13;;;;;;;11.65;26.57;101243.41;5070723;28;20231;-78
2022/03/21 08:44:00;;;;;;;19.90;12.20;;;;;;;11.74;26.73;101252.06;5070346;28;20224;-77
2022/03/21 08:46:27;;;;;;;16.20;11.90;;;;;;;11.33;26.73;101195.06;5070817;28;20659;-78
2022/03/21 08:51:39;;;;;;;19.87;11.63;;;;;;;11.42;25.81;101250.47;5071109;28;20615;-79
2022/03/21 08:54:07;;;;;;;14.10;10.40;;;;;;;11.01;26.96;101252.38;5070342;28;20239;-80
2022/03/21 08:56:34;;;;;;;14.80;9.97;;;;;;;11.02;27.12;101254.09;5070790;28;20231;-77
2022/03/21 08:59:01;;;;;;;13.50;10.03;;;;;;;10.73;27.40;101254.16;5060243;28;20605;-77
2022/03/21 09:01:28;;;;;;;12.67;9.93;;;;;;;10.80;26.69;101241.19;5050347;28;20307;-76
2022/03/21 09:03:55;;;;;;;12.60;8.73;;;;;;;10.80;27.19;101246.38;5050410;28;20225;-77
2022/03/21 09:06:22;;;;;;;10.80;9.13;;;;;;;11.01;26.79;101242.84;5049981;28;20224;-77
2022/03/21 09:08:49;;;;;;;9.67;8.30;;;;;;;11.04;26.44;101223.78;5054859;28;20230;-77
2022/03/21 09:11:19;;;;;;;11.37;8.60;;;;;;;11.07;26.37;101218.56;5067687;28;20231;-78
2022/03/21 09:13:46;;;;;;;13.87;9.40;;;;;;;11.18;26.50;101241.03;5061976;28;20248;-77
2022/03/21 09:16:13;;;;;;;11.37;9.77;;;;;;;11.13;26.74;101241.94;5069396;28;20227;-76
2022/03/21 09:18:41;;;;;;;11.90;10.20;;;;;;;10.76;27.72;101239.44;5069532;28;20228;-78
2022/03/21 09:21:08;;;;;;;13.80;10.27;;;;;;;10.83;27.33;101238.56;5065345;28;20591;-78
2022/03/21 09:23:35;;;;;;;13.03;10.07;;;;;;;11.19;27.34;101237.56;5063961;28;20217;-78
2022/03/21 09:26:03;;;;;;;13.60;10.67;;;;;;;10.87;27.33;101197.84;5060248;28;20235;-77
2022/03/21 09:28:32;;;;;;;11.50;10.13;;;;;;;11.05;27.65;101228.13;5049322;28;20232;-77
2022/03/21 09:30:59;;;;;;;18.67;10.47;;;;;;;11.16;27.61;101219.41;5054906;28;20220;-78
2022/03/21 09:33:28;;;;;;;12.67;9.70;;;;;;;11.24;27.45;101232.38;5061829;28;20235;-78
2022/03/21 09:35:55;;;;;;;13.63;9.70;;;;;;;11.29;27.12;101225.41;5069982;28;20192;-79
2022/03/21 09:38:22;;;;;;;14.83;9.50;;;;;;;11.04;27.74;101226.38;5064619;28;20220;-76
2022/03/21 09:40:49;;;;;;;13.40;9.23;;;;;;;11.07;27.09;101221.16;5050892;28;20219;-80
2022/03/21 09:43:15;;;;;;;11.23;9.10;;;;;;;10.81;27.90;101219.53;5050850;28;20243;-79
2022/03/21 09:45:45;;;;;;;9.63;8.67;;;;;;;10.72;28.01;101216.94;5061366;28;20303;-80
2022/03/21 09:48:16;;;;;;;12.97;9.37;;;;;;;10.86;27.60;101207.38;5054956;28;20230;-80
2022/03/21 09:50:45;;;;;;;10.50;9.40;;;;;;;10.97;27.51;101209.06;5058045;28;20219;-82
2022/03/21 09:53:14;;;;;;;12.80;10.40;;;;;;;10.82;28.04;101186.63;5049765;28;20680;-80
2022/03/21 09:55:43;;;;;;;15.47;10.50;;;;;;;10.96;27.82;101209.94;5049332;28;20628;-80
2022/03/21 09:58:10;;;;;;;15.60;11.33;;;;;;;11.21;28.06;101206.38;5050936;28;20231;-81
2022/03/21 10:00:38;;;;;;;12.63;10.40;;;;;;;11.31;27.74;101196.78;5070212;28;20196;-80
2022/03/21 10:03:06;;;;;;;14.47;9.90;;;;;;;11.42;27.64;101201.06;5070193;28;20253;-79
2022/03/21 10:05:35;;;;;;;11.57;9.50;;;;;;;11.28;27.72;101190.78;5069543;28;20657;-81
2022/03/21 10:08:18;;;;;;;16.30;9.60;;;;;;;11.11;27.37;101187.38;5060631;28;20196;-80
2022/03/21 10:10:57;;;;;;;12.63;9.73;;;;;;;10.68;27.28;101152.03;5060588;28;20207;-79
2022/03/21 10:13:25;;;;;;;14.13;10.27;;;;;;;11.05;28.05;101181.34;5060587;28;20735;-80
2022/03/21 10:16:08;;;;;;;13.43;9.87;;;;;;;11.24;27.91;101183.84;5060014;28;20196;-79
2022/03/21 10:18:36;;;;;;;16.80;11.03;;;;;;;11.23;27.31;101186.44;5058901;28;20202;-78
2022/03/21 10:21:11;;;;;;;12.37;10.90;;;;;;;11.09;27.54;101164.84;5060353;28;20193;-79
2022/03/21 10:23:38;;;;;;;17.67;10.50;;;;;;;11.11;27.76;101178.69;5060571;28;20694;-79
2022/03/21 10:26:27;;;;;;;12.20;9.37;;;;;;;11.06;27.90;101170.09;5060278;28;20191;-78
2022/03/21 10:28:55;;;;;;;14.77;10.53;;;;;;;11.36;27.73;101180.31;5057526;28;20196;-78
2022/03/21 10:31:40;;;;;;;12.00;9.87;;;;;;;11.31;27.21;101176.88;5060064;28;20224;-78
2022/03/21 10:34:10;;;;;;;12.77;10.40;;;;;;;11.25;27.31;101166.50;5060792;28;20196;-78
2022/03/21 10:37:01;;;;;;;16.40;10.53;;;;;;;11.26;27.78;101163.03;5059564;28;20271;-79
2022/03/21 10:39:28;;;;;;;12.33;9.03;;;;;;;11.35;27.51;101162.13;5060400;28;20202;-78
2022/03/21 10:41:57;;;;;;;10.90;9.30;;;;;;;11.35;28.04;101157.78;5058979;28;20199;-77
2022/03/21 10:44:24;;;;;;;16.77;9.40;;;;;;;11.52;27.40;101149.88;5060294;28;20200;-79
2022/03/21 10:46:53;;;;;;;10.43;9.13;;;;;;;11.67;27.05;101148.91;5059419;28;20204;-78
2022/03/21 10:49:30;;;;;;;11.63;9.00;;;;;;;11.50;27.04;101159.44;5059797;28;20196;-79
2022/03/21 10:51:57;;;;;;;11.37;9.50;;;;;;;11.55;27.06;101139.44;5060120;28;20215;-79
2022/03/21 10:54:53;;;;;;;11.30;9.73;;;;;;;11.59;27.29;101121.22;5059232;28;20225;-76
2022/03/21 10:57:28;;;;;;;11.00;8.47;;;;;;;11.87;27.07;101137.50;5016704;28;20200;-78
2022/03/21 11:00:13;;;;;;;10.50;9.40;;;;;;;12.15;26.57;101127.72;5058517;28;20215;-78
2022/03/21 11:02:50;;;;;;;10.07;8.97;;;;;;;12.15;26.53;101127.72;5057262;28;20212;-78
2022/03/21 11:05:20;;;;;;;12.60;8.63;;;;;;;12.02;26.61;101118.31;5063567;28;20196;-79
2022/03/21 11:07:47;;;;;;;10.17;8.07;;;;;;;11.56;27.40;101121.25;5055468;28;20228;-78
2022/03/21 11:10:14;;;;;;;14.63;9.70;;;;;;;11.53;27.28;101120.41;5053774;28;20224;-76
2022/03/21 11:12:42;;;;;;;9.80;8.80;;;;;;;11.53;27.49;101115.19;5068846;28;20765;-77
2022/03/21 11:15:10;;;;;;;10.90;8.90;;;;;;;11.33;27.93;101085.88;5068856;28;20224;-78
2022/03/21 11:17:38;;;;;;;10.10;8.60;;;;;;;11.20;28.06;101111.94;5054509;28;20221;-78
2022/03/21 11:20:06;;;;;;;13.00;9.43;;;;;;;11.15;27.77;101112.84;5067815;28;20212;-77
2022/03/21 11:22:35;;;;;;;8.97;8.07;;;;;;;10.98;27.82;101104.28;5068621;28;20273;-77
2022/03/21 11:25:04;;;;;;;10.93;8.53;;;;;;;10.66;28.41;101097.50;5068577;28;20215;-78
2022/03/21 11:27:56;;;;;;;10.73;8.80;;;;;;;10.70;28.28;101095.75;5068827;28;20227;-78
2022/03/21 11:30:31;;;;;;;11.53;9.03;;;;;;;10.73;28.43;101081.00;5068562;28;20255;-79
2022/03/21 11:33:09;;;;;;;14.97;9.97;;;;;;;11.10;28.15;101078.22;5071393;28;20225;-78
2022/03/21 11:35:38;;;;;;;9.83;8.23;;;;;;;11.20;27.92;101036.56;5069306;28;20587;-80
2022/03/21 11:38:29;;;;;;;10.43;8.73;;;;;;;11.22;27.75;101067.75;5059448;28;20598;-80
2022/03/21 11:41:10;;;;;;;9.73;8.53;;;;;;;11.41;27.46;101047.69;5051940;28;20213;-78
2022/03/21 11:43:38;;;;;;;11.53;8.60;;;;;;;11.53;27.67;101052.78;5052524;28;20225;-79
2022/03/21 11:46:29;;;;;;;23.33;13.63;;;;;;;11.70;27.48;101061.31;5051442;28;20209;-79
2022/03/21 11:48:57;;;;;;;12.00;8.73;;;;;;;11.48;27.29;101037.22;5063881;28;20341;-78